sensor_id;sensor_type;location;lat;lon;timestamp;pressure;altitude;pressure_sealevel;temperature;humidity
42761;BME280;31672;47.638;19.026;2023-12-04T00:04:06;101024.38;;;-6.03;100.00
42761;BME280;31672;47.638;19.026;2023-12-04T00:09:10;101016.22;;;-6.21;100.00
42761;BME280;31672;47.638;19.026;2023-12-04T00:14:13;101029.34;;;-6.27;100.00
42761;BME280;31672;47.638;19.026;2023-12-04T00:19:17;101027.13;;;-6.40;100.00
42761;BME280;31672;47.638;19.026;2023-12-04T00:24:22;101015.25;;;-6.49;100.00
42761;BME280;31672;47.638;19.026;2023-12-04T00:29:25;101009.53;;;-6.60;100.00
42761;BME280;31672;47.638;19.026;2023-12-04T00:34:29;101017.47;;;-6.68;100.00
42761;BME280;31672;47.638;19.026;2023-12-04T00:39:34;101011.50;;;-6.70;100.00
42761;BME280;31672;47.638;19.026;2023-12-04T00:44:38;101016.00;;;-6.77;100.00
42761;BME280;31672;47.638;19.026;2023-12-04T00:49:41;101028.94;;;-6.78;100.00
42761;BME280;31672;47.638;19.026;2023-12-04T00:54:46;101031.66;;;-6.84;100.00
42761;BME280;31672;47.638;19.026;2023-12-04T00:59:50;101023.31;;;-6.94;100.00
42761;BME280;31672;47.638;19.026;2023-12-04T01:04:54;101021.63;;;-6.95;100.00
42761;BME280;31672;47.638;19.026;2023-12-04T01:09:57;101025.00;;;-6.93;100.00
42761;BME280;31672;47.638;19.026;2023-12-04T01:15:02;101018.13;;;-6.94;100.00
42761;BME280;31672;47.638;19.026;2023-12-04T01:20:07;101026.84;;;-6.98;100.00
42761;BME280;31672;47.638;19.026;2023-12-04T01:25:11;101020.16;;;-7.07;100.00
42761;BME280;31672;47.638;19.026;2023-12-04T01:30:15;101001.53;;;-7.19;100.00
42761;BME280;31672;47.638;19.026;2023-12-04T01:35:19;101023.81;;;-7.15;100.00
42761;BME280;31672;47.638;19.026;2023-12-04T01:40:23;101021.31;;;-7.20;100.00
42761;BME280;31672;47.638;19.026;2023-12-04T01:45:26;101038.50;;;-7.17;100.00
42761;BME280;31672;47.638;19.026;2023-12-04T01:50:30;101025.72;;;-7.23;100.00
42761;BME280;31672;47.638;19.026;2023-12-04T01:55:36;101010.44;;;-7.33;100.00
42761;BME280;31672;47.638;19.026;2023-12-04T02:00:40;101035.25;;;-7.25;100.00
42761;BME280;31672;47.638;19.026;2023-12-04T02:05:44;101048.22;;;-7.29;100.00
42761;BME280;31672;47.638;19.026;2023-12-04T02:10:49;101045.63;;;-7.29;100.00
42761;BME280;31672;47.638;19.026;2023-12-04T02:15:54;101044.00;;;-7.33;100.00
42761;BME280;31672;47.638;19.026;2023-12-04T02:21:03;101043.16;;;-7.33;100.00
42761;BME280;31672;47.638;19.026;2023-12-04T02:26:15;101053.44;;;-7.32;100.00
42761;BME280;31672;47.638;19.026;2023-12-04T02:31:22;101049.19;;;-7.34;100.00
42761;BME280;31672;47.638;19.026;2023-12-04T02:36:29;101044.13;;;-7.37;100.00
42761;BME280;31672;47.638;19.026;2023-12-04T02:41:35;101047.56;;;-7.38;100.00
42761;BME280;31672;47.638;19.026;2023-12-04T02:46:39;101037.31;;;-7.41;100.00
42761;BME280;31672;47.638;19.026;2023-12-04T02:51:42;101046.81;;;-7.42;100.00
42761;BME280;31672;47.638;19.026;2023-12-04T02:56:46;101048.53;;;-7.44;100.00
42761;BME280;31672;47.638;19.026;2023-12-04T03:01:50;101047.75;;;-7.46;100.00
42761;BME280;31672;47.638;19.026;2023-12-04T03:06:54;101055.47;;;-7.46;100.00
42761;BME280;31672;47.638;19.026;2023-12-04T03:11:58;101047.09;;;-7.56;100.00
42761;BME280;31672;47.638;19.026;2023-12-04T03:17:02;101070.16;;;-7.48;100.00
42761;BME280;31672;47.638;19.026;2023-12-04T03:22:07;101059.00;;;-7.50;100.00
42761;BME280;31672;47.638;19.026;2023-12-04T03:27:10;101063.19;;;-7.44;100.00
42761;BME280;31672;47.638;19.026;2023-12-04T03:32:14;101058.88;;;-7.42;100.00
42761;BME280;31672;47.638;19.026;2023-12-04T03:37:18;101056.34;;;-7.45;100.00
42761;BME280;31672;47.638;19.026;2023-12-04T03:42:22;101061.56;;;-7.48;100.00
42761;BME280;31672;47.638;19.026;2023-12-04T03:47:25;101076.22;;;-7.50;100.00
42761;BME280;31672;47.638;19.026;2023-12-04T03:52:30;101071.09;;;-7.52;100.00
42761;BME280;31672;47.638;19.026;2023-12-04T03:57:33;101072.84;;;-7.52;100.00
42761;BME280;31672;47.638;19.026;2023-12-04T04:02:39;101059.94;;;-7.52;100.00
42761;BME280;31672;47.638;19.026;2023-12-04T04:07:46;101069.31;;;-7.50;100.00
42761;BME280;31672;47.638;19.026;2023-12-04T04:12:49;101070.97;;;-7.46;100.00
42761;BME280;31672;47.638;19.026;2023-12-04T04:17:53;101062.34;;;-7.45;100.00
42761;BME280;31672;47.638;19.026;2023-12-04T04:22:57;101060.59;;;-7.44;100.00
42761;BME280;31672;47.638;19.026;2023-12-04T04:28:01;101069.19;;;-7.44;100.00
42761;BME280;31672;47.638;19.026;2023-12-04T04:33:04;101069.31;;;-7.50;100.00
42761;BME280;31672;47.638;19.026;2023-12-04T04:38:09;101074.50;;;-7.50;100.00
42761;BME280;31672;47.638;19.026;2023-12-04T04:43:13;101062.59;;;-7.57;100.00
42761;BME280;31672;47.638;19.026;2023-12-04T04:48:16;101072.28;;;-7.67;100.00
42761;BME280;31672;47.638;19.026;2023-12-04T04:53:20;101067.38;;;-7.81;100.00
42761;BME280;31672;47.638;19.026;2023-12-04T04:58:24;101075.19;;;-7.84;100.00
42761;BME280;31672;47.638;19.026;2023-12-04T05:03:28;101088.31;;;-7.94;100.00
42761;BME280;31672;47.638;19.026;2023-12-04T05:08:31;101089.34;;;-8.03;100.00
42761;BME280;31672;47.638;19.026;2023-12-04T05:13:35;101085.16;;;-8.10;100.00
42761;BME280;31672;47.638;19.026;2023-12-04T05:18:39;101091.22;;;-8.13;100.00
42761;BME280;31672;47.638;19.026;2023-12-04T05:23:43;101085.38;;;-8.22;100.00
42761;BME280;31672;47.638;19.026;2023-12-04T05:28:47;101081.22;;;-8.29;100.00
42761;BME280;31672;47.638;19.026;2023-12-04T05:33:51;101087.31;;;-8.33;100.00
42761;BME280;31672;47.638;19.026;2023-12-04T05:38:55;101078.00;;;-8.41;100.00
42761;BME280;31672;47.638;19.026;2023-12-04T05:44:01;101084.06;;;-8.43;100.00
42761;BME280;31672;47.638;19.026;2023-12-04T05:49:05;101091.88;;;-8.48;100.00
42761;BME280;31672;47.638;19.026;2023-12-04T05:54:09;101090.13;;;-8.46;100.00
42761;BME280;31672;47.638;19.026;2023-12-04T05:59:12;101096.25;;;-8.53;100.00
42761;BME280;31672;47.638;19.026;2023-12-04T06:04:16;101101.38;;;-8.50;100.00
42761;BME280;31672;47.638;19.026;2023-12-04T06:09:20;101093.56;;;-8.45;100.00
42761;BME280;31672;47.638;19.026;2023-12-04T06:14:24;101078.22;;;-8.51;100.00
42761;BME280;31672;47.638;19.026;2023-12-04T06:19:28;101096.81;;;-8.36;100.00
42761;BME280;31672;47.638;19.026;2023-12-04T06:24:33;101098.28;;;-8.22;100.00
42761;BME280;31672;47.638;19.026;2023-12-04T06:29:37;101082.69;;;-8.16;100.00
42761;BME280;31672;47.638;19.026;2023-12-04T06:34:41;101100.63;;;-8.10;100.00
42761;BME280;31672;47.638;19.026;2023-12-04T06:39:47;101105.59;;;-7.99;100.00
42761;BME280;31672;47.638;19.026;2023-12-04T06:44:52;101121.34;;;-7.68;100.00
42761;BME280;31672;47.638;19.026;2023-12-04T06:49:56;101121.59;;;-7.37;100.00
42761;BME280;31672;47.638;19.026;2023-12-04T06:55:01;101122.56;;;-7.04;100.00
42761;BME280;31672;47.638;19.026;2023-12-04T07:00:06;101113.38;;;-6.77;100.00
42761;BME280;31672;47.638;19.026;2023-12-04T07:05:24;101116.78;;;-6.41;100.00
42761;BME280;31672;47.638;19.026;2023-12-04T07:10:29;101129.69;;;-6.05;100.00
42761;BME280;31672;47.638;19.026;2023-12-04T07:15:37;101111.84;;;-5.85;100.00
42761;BME280;31672;47.638;19.026;2023-12-04T07:20:41;101119.53;;;-5.51;100.00
42761;BME280;31672;47.638;19.026;2023-12-04T07:25:45;101108.03;;;-5.13;100.00
42761;BME280;31672;47.638;19.026;2023-12-04T07:30:49;101121.16;;;-4.63;100.00
42761;BME280;31672;47.638;19.026;2023-12-04T07:35:53;101113.47;;;-4.13;100.00
42761;BME280;31672;47.638;19.026;2023-12-04T07:40:57;101130.16;;;-3.70;100.00
42761;BME280;31672;47.638;19.026;2023-12-04T07:46:00;101130.50;;;-3.32;100.00
42761;BME280;31672;47.638;19.026;2023-12-04T07:51:05;101121.44;;;-2.99;100.00
42761;BME280;31672;47.638;19.026;2023-12-04T07:56:09;101112.72;;;-2.54;100.00
42761;BME280;31672;47.638;19.026;2023-12-04T08:01:15;101118.19;;;-1.97;100.00
42761;BME280;31672;47.638;19.026;2023-12-04T08:06:19;101117.56;;;-1.44;100.00
42761;BME280;31672;47.638;19.026;2023-12-04T08:11:22;101113.06;;;-0.84;100.00
42761;BME280;31672;47.638;19.026;2023-12-04T08:16:27;101105.25;;;-0.48;100.00
42761;BME280;31672;47.638;19.026;2023-12-04T08:21:32;101099.47;;;-0.20;100.00
42761;BME280;31672;47.638;19.026;2023-12-04T08:26:36;101103.75;;;0.16;100.00
42761;BME280;31672;47.638;19.026;2023-12-04T08:31:40;101118.63;;;0.48;100.00
42761;BME280;31672;47.638;19.026;2023-12-04T08:36:44;101115.03;;;0.83;100.00
42761;BME280;31672;47.638;19.026;2023-12-04T08:41:49;101108.53;;;0.90;100.00
42761;BME280;31672;47.638;19.026;2023-12-04T08:47:04;101106.47;;;0.63;100.00
42761;BME280;31672;47.638;19.026;2023-12-04T08:52:08;101098.72;;;-0.05;100.00
42761;BME280;31672;47.638;19.026;2023-12-04T08:57:12;101107.94;;;-0.68;100.00
42761;BME280;31672;47.638;19.026;2023-12-04T09:02:16;101105.88;;;-0.98;100.00
42761;BME280;31672;47.638;19.026;2023-12-04T09:07:20;101100.84;;;-0.65;100.00
42761;BME280;31672;47.638;19.026;2023-12-04T09:12:27;101101.69;;;0.05;100.00
42761;BME280;31672;47.638;19.026;2023-12-04T09:17:30;101113.06;;;0.70;100.00
42761;BME280;31672;47.638;19.026;2023-12-04T09:22:42;101100.59;;;1.07;100.00
42761;BME280;31672;47.638;19.026;2023-12-04T09:27:55;101104.16;;;1.22;95.33
42761;BME280;31672;47.638;19.026;2023-12-04T09:32:58;101089.13;;;0.94;95.54
42761;BME280;31672;47.638;19.026;2023-12-04T09:38:02;101087.91;;;0.52;92.96
42761;BME280;31672;47.638;19.026;2023-12-04T09:43:06;101080.63;;;0.08;94.36
42761;BME280;31672;47.638;19.026;2023-12-04T09:48:10;101071.13;;;-0.28;94.52
42761;BME280;31672;47.638;19.026;2023-12-04T09:53:15;101057.00;;;-0.58;92.93
42761;BME280;31672;47.638;19.026;2023-12-04T09:58:20;101050.91;;;-0.76;96.78
42761;BME280;31672;47.638;19.026;2023-12-04T10:03:25;101058.25;;;-0.84;99.63
42761;BME280;31672;47.638;19.026;2023-12-04T10:08:29;101045.56;;;-0.92;100.00
42761;BME280;31672;47.638;19.026;2023-12-04T10:13:32;101031.16;;;-0.99;99.13
42761;BME280;31672;47.638;19.026;2023-12-04T10:18:56;101014.66;;;-0.99;95.47
42761;BME280;31672;47.638;19.026;2023-12-04T10:23:59;101013.81;;;-1.00;91.55
42761;BME280;31672;47.638;19.026;2023-12-04T10:29:04;101014.47;;;-0.96;94.45
42761;BME280;31672;47.638;19.026;2023-12-04T10:34:08;101007.81;;;-0.85;95.63
42761;BME280;31672;47.638;19.026;2023-12-04T10:39:15;100990.34;;;-0.65;96.05
42761;BME280;31672;47.638;19.026;2023-12-04T10:44:20;100993.88;;;0.02;94.13
42761;BME280;31672;47.638;19.026;2023-12-04T10:49:29;100984.47;;;0.31;90.23
42761;BME280;31672;47.638;19.026;2023-12-04T10:54:32;100967.66;;;0.35;86.41
42761;BME280;31672;47.638;19.026;2023-12-04T10:59:38;100967.78;;;0.49;84.57
42761;BME280;31672;47.638;19.026;2023-12-04T11:04:42;100974.84;;;0.31;83.70
42761;BME280;31672;47.638;19.026;2023-12-04T11:09:47;100970.44;;;0.16;83.92
42761;BME280;31672;47.638;19.026;2023-12-04T11:14:58;100964.28;;;0.01;84.85
42761;BME280;31672;47.638;19.026;2023-12-04T11:20:11;100943.84;;;-0.08;84.13
42761;BME280;31672;47.638;19.026;2023-12-04T11:25:19;100942.66;;;-0.18;84.06
42761;BME280;31672;47.638;19.026;2023-12-04T11:30:29;100938.53;;;-0.22;84.42
42761;BME280;31672;47.638;19.026;2023-12-04T11:35:34;100937.00;;;-0.27;83.83
42761;BME280;31672;47.638;19.026;2023-12-04T11:40:37;100923.50;;;-0.35;83.10
42761;BME280;31672;47.638;19.026;2023-12-04T11:45:41;100920.81;;;-0.33;84.65
42761;BME280;31672;47.638;19.026;2023-12-04T11:50:45;100910.34;;;-0.33;84.64
42761;BME280;31672;47.638;19.026;2023-12-04T11:55:48;100905.38;;;-0.38;83.38
42761;BME280;31672;47.638;19.026;2023-12-04T12:00:52;100910.28;;;-0.32;84.67
42761;BME280;31672;47.638;19.026;2023-12-04T12:05:59;100898.22;;;-0.34;85.55
42761;BME280;31672;47.638;19.026;2023-12-04T12:11:03;100887.78;;;-0.34;84.80
42761;BME280;31672;47.638;19.026;2023-12-04T12:16:07;100886.63;;;-0.29;85.11
42761;BME280;31672;47.638;19.026;2023-12-04T12:21:11;100879.53;;;-0.27;81.64
42761;BME280;31672;47.638;19.026;2023-12-04T12:26:15;100850.81;;;-0.27;83.47
42761;BME280;31672;47.638;19.026;2023-12-04T12:31:19;100842.63;;;-0.20;84.15
42761;BME280;31672;47.638;19.026;2023-12-04T12:36:23;100845.25;;;-0.20;85.30
42761;BME280;31672;47.638;19.026;2023-12-04T12:41:26;100834.19;;;-0.25;85.19
42761;BME280;31672;47.638;19.026;2023-12-04T12:46:30;100837.75;;;-0.27;84.67
42761;BME280;31672;47.638;19.026;2023-12-04T12:51:34;100838.81;;;-0.31;85.24
42761;BME280;31672;47.638;19.026;2023-12-04T12:56:37;100845.06;;;-0.33;86.27
42761;BME280;31672;47.638;19.026;2023-12-04T13:01:41;100840.09;;;-0.38;86.67
42761;BME280;31672;47.638;19.026;2023-12-04T13:06:45;100822.97;;;-0.43;87.37
42761;BME280;31672;47.638;19.026;2023-12-04T13:11:49;100829.81;;;-0.41;87.86
42761;BME280;31672;47.638;19.026;2023-12-04T13:16:55;100824.25;;;-0.50;88.47
42761;BME280;31672;47.638;19.026;2023-12-04T13:21:59;100826.00;;;-0.51;88.63
42761;BME280;31672;47.638;19.026;2023-12-04T13:27:03;100820.03;;;-0.53;89.21
42761;BME280;31672;47.638;19.026;2023-12-04T13:32:06;100814.63;;;-0.50;90.41
42761;BME280;31672;47.638;19.026;2023-12-04T13:37:11;100803.69;;;-0.57;89.60
42761;BME280;31672;47.638;19.026;2023-12-04T13:42:15;100814.13;;;-0.57;89.08
42761;BME280;31672;47.638;19.026;2023-12-04T13:47:37;100814.31;;;-0.60;89.99
42761;BME280;31672;47.638;19.026;2023-12-04T13:52:42;100794.72;;;-0.68;90.59
42761;BME280;31672;47.638;19.026;2023-12-04T13:57:47;100794.31;;;-0.76;92.04
42761;BME280;31672;47.638;19.026;2023-12-04T14:03:03;100796.75;;;-0.73;91.76
42761;BME280;31672;47.638;19.026;2023-12-04T14:08:08;100795.56;;;-0.84;92.90
42761;BME280;31672;47.638;19.026;2023-12-04T14:13:14;100804.47;;;-0.88;93.39
42761;BME280;31672;47.638;19.026;2023-12-04T14:18:18;100798.81;;;-0.96;94.41
42761;BME280;31672;47.638;19.026;2023-12-04T14:23:22;100792.72;;;-0.96;94.28
42761;BME280;31672;47.638;19.026;2023-12-04T14:28:25;100786.97;;;-1.03;94.77
42761;BME280;31672;47.638;19.026;2023-12-04T14:33:38;100773.75;;;-1.16;95.14
42761;BME280;31672;47.638;19.026;2023-12-04T14:38:45;100777.19;;;-1.15;95.38
42761;BME280;31672;47.638;19.026;2023-12-04T14:43:49;100769.69;;;-1.21;95.76
42761;BME280;31672;47.638;19.026;2023-12-04T14:48:53;100751.13;;;-1.32;97.23
42761;BME280;31672;47.638;19.026;2023-12-04T14:53:57;100763.50;;;-1.36;97.81
42761;BME280;31672;47.638;19.026;2023-12-04T14:59:18;100766.25;;;-1.39;99.05
42761;BME280;31672;47.638;19.026;2023-12-04T15:04:50;100760.69;;;-1.49;100.00
42761;BME280;31672;47.638;19.026;2023-12-04T15:10:09;100776.16;;;-1.46;100.00
42761;BME280;31672;47.638;19.026;2023-12-04T15:15:48;100772.03;;;-1.50;100.00
42761;BME280;31672;47.638;19.026;2023-12-04T15:21:24;100771.09;;;-1.49;100.00
42761;BME280;31672;47.638;19.026;2023-12-04T15:26:28;100745.47;;;-1.58;100.00
42761;BME280;31672;47.638;19.026;2023-12-04T15:31:32;100746.00;;;-1.51;100.00
42761;BME280;31672;47.638;19.026;2023-12-04T15:36:36;100740.13;;;-1.55;100.00
42761;BME280;31672;47.638;19.026;2023-12-04T15:41:40;100728.91;;;-1.57;100.00
42761;BME280;31672;47.638;19.026;2023-12-04T15:46:43;100736.75;;;-1.57;100.00
42761;BME280;31672;47.638;19.026;2023-12-04T15:51:47;100738.50;;;-1.57;100.00
42761;BME280;31672;47.638;19.026;2023-12-04T15:56:51;100744.03;;;-1.64;100.00
42761;BME280;31672;47.638;19.026;2023-12-04T16:01:54;100742.22;;;-1.62;100.00
42761;BME280;31672;47.638;19.026;2023-12-04T16:06:58;100733.81;;;-1.68;100.00
42761;BME280;31672;47.638;19.026;2023-12-04T16:12:02;100717.00;;;-1.78;100.00
42761;BME280;31672;47.638;19.026;2023-12-04T16:17:06;100739.22;;;-1.71;100.00
42761;BME280;31672;47.638;19.026;2023-12-04T16:22:10;100737.66;;;-1.75;100.00
42761;BME280;31672;47.638;19.026;2023-12-04T16:27:14;100735.22;;;-1.78;100.00
42761;BME280;31672;47.638;19.026;2023-12-04T16:32:18;100726.78;;;-1.83;100.00
42761;BME280;31672;47.638;19.026;2023-12-04T16:37:22;100739.06;;;-1.85;100.00
42761;BME280;31672;47.638;19.026;2023-12-04T16:42:26;100728.84;;;-1.90;100.00
42761;BME280;31672;47.638;19.026;2023-12-04T16:47:31;100726.63;;;-1.98;100.00
42761;BME280;31672;47.638;19.026;2023-12-04T16:52:36;100727.78;;;-2.03;100.00
42761;BME280;31672;47.638;19.026;2023-12-04T16:57:39;100706.47;;;-2.11;100.00
42761;BME280;31672;47.638;19.026;2023-12-04T17:02:43;100705.00;;;-2.17;100.00
42761;BME280;31672;47.638;19.026;2023-12-04T17:07:47;100698.31;;;-2.23;100.00
42761;BME280;31672;47.638;19.026;2023-12-04T17:12:50;100713.25;;;-2.26;100.00
42761;BME280;31672;47.638;19.026;2023-12-04T17:17:56;100705.03;;;-2.36;100.00
42761;BME280;31672;47.638;19.026;2023-12-04T17:23:02;100698.44;;;-2.43;100.00
42761;BME280;31672;47.638;19.026;2023-12-04T17:28:05;100680.09;;;-2.59;100.00
42761;BME280;31672;47.638;19.026;2023-12-04T17:33:09;100699.75;;;-2.52;100.00
42761;BME280;31672;47.638;19.026;2023-12-04T17:38:13;100698.31;;;-2.59;100.00
42761;BME280;31672;47.638;19.026;2023-12-04T17:43:17;100695.97;;;-2.63;100.00
42761;BME280;31672;47.638;19.026;2023-12-04T17:48:21;100702.03;;;-2.64;100.00
42761;BME280;31672;47.638;19.026;2023-12-04T17:53:24;100672.75;;;-2.68;100.00
42761;BME280;31672;47.638;19.026;2023-12-04T17:58:29;100681.41;;;-2.67;100.00
42761;BME280;31672;47.638;19.026;2023-12-04T18:03:33;100688.34;;;-2.68;100.00
42761;BME280;31672;47.638;19.026;2023-12-04T18:08:42;100674.44;;;-2.67;100.00
42761;BME280;31672;47.638;19.026;2023-12-04T18:13:46;100660.38;;;-2.63;100.00
42761;BME280;31672;47.638;19.026;2023-12-04T18:18:50;100666.34;;;-2.61;100.00
42761;BME280;31672;47.638;19.026;2023-12-04T18:23:54;100663.94;;;-2.65;100.00
42761;BME280;31672;47.638;19.026;2023-12-04T18:28:58;100666.34;;;-2.61;100.00
42761;BME280;31672;47.638;19.026;2023-12-04T18:34:02;100651.84;;;-2.66;100.00
42761;BME280;31672;47.638;19.026;2023-12-04T18:39:06;100645.81;;;-2.67;100.00
42761;BME280;31672;47.638;19.026;2023-12-04T18:44:12;100625.41;;;-2.76;100.00
42761;BME280;31672;47.638;19.026;2023-12-04T18:49:16;100615.38;;;-2.84;100.00
42761;BME280;31672;47.638;19.026;2023-12-04T18:54:20;100624.66;;;-2.78;100.00
42761;BME280;31672;47.638;19.026;2023-12-04T18:59:24;100625.59;;;-2.79;100.00
42761;BME280;31672;47.638;19.026;2023-12-04T19:04:28;100622.16;;;-2.80;100.00
42761;BME280;31672;47.638;19.026;2023-12-04T19:09:32;100619.53;;;-2.80;100.00
42761;BME280;31672;47.638;19.026;2023-12-04T19:14:36;100628.25;;;-2.81;100.00
42761;BME280;31672;47.638;19.026;2023-12-04T19:19:44;100611.19;;;-2.86;100.00
42761;BME280;31672;47.638;19.026;2023-12-04T19:24:57;100607.97;;;-2.91;100.00
42761;BME280;31672;47.638;19.026;2023-12-04T19:30:04;100627.09;;;-2.92;100.00
42761;BME280;31672;47.638;19.026;2023-12-04T19:35:08;100654.00;;;-2.93;100.00
42761;BME280;31672;47.638;19.026;2023-12-04T19:40:13;100622.22;;;-3.00;100.00
42761;BME280;31672;47.638;19.026;2023-12-04T19:45:17;100594.63;;;-3.03;100.00
42761;BME280;31672;47.638;19.026;2023-12-04T19:50:21;100587.81;;;-3.05;100.00
42761;BME280;31672;47.638;19.026;2023-12-04T19:55:25;100598.25;;;-3.07;100.00
42761;BME280;31672;47.638;19.026;2023-12-04T20:00:28;100589.84;;;-3.12;100.00
42761;BME280;31672;47.638;19.026;2023-12-04T20:05:35;100582.94;;;-3.13;100.00
42761;BME280;31672;47.638;19.026;2023-12-04T20:10:39;100585.78;;;-3.17;100.00
42761;BME280;31672;47.638;19.026;2023-12-04T20:15:45;100592.78;;;-3.19;100.00
42761;BME280;31672;47.638;19.026;2023-12-04T20:20:49;100598.06;;;-3.21;100.00
42761;BME280;31672;47.638;19.026;2023-12-04T20:25:53;100564.47;;;-3.26;100.00
42761;BME280;31672;47.638;19.026;2023-12-04T20:30:57;100546.94;;;-3.39;100.00
42761;BME280;31672;47.638;19.026;2023-12-04T20:36:05;100551.00;;;-3.34;100.00
42761;BME280;31672;47.638;19.026;2023-12-04T20:41:11;100556.84;;;-3.29;100.00
42761;BME280;31672;47.638;19.026;2023-12-04T20:46:14;100532.91;;;-3.35;100.00
42761;BME280;31672;47.638;19.026;2023-12-04T20:51:19;100539.41;;;-3.27;100.00
42761;BME280;31672;47.638;19.026;2023-12-04T20:56:22;100522.13;;;-3.28;100.00
42761;BME280;31672;47.638;19.026;2023-12-04T21:01:29;100509.97;;;-3.27;100.00
42761;BME280;31672;47.638;19.026;2023-12-04T21:06:34;100526.97;;;-3.20;100.00
42761;BME280;31672;47.638;19.026;2023-12-04T21:11:41;100513.28;;;-3.24;100.00
42761;BME280;31672;47.638;19.026;2023-12-04T21:16:44;100516.50;;;-3.18;100.00
42761;BME280;31672;47.638;19.026;2023-12-04T21:22:00;100498.25;;;-3.17;100.00
42761;BME280;31672;47.638;19.026;2023-12-04T21:27:04;100511.88;;;-3.12;100.00
42761;BME280;31672;47.638;19.026;2023-12-04T21:32:08;100512.63;;;-3.10;100.00
42761;BME280;31672;47.638;19.026;2023-12-04T21:37:12;100513.38;;;-3.08;100.00
42761;BME280;31672;47.638;19.026;2023-12-04T21:42:15;100503.81;;;-3.07;100.00
42761;BME280;31672;47.638;19.026;2023-12-04T21:47:19;100508.81;;;-3.03;100.00
42761;BME280;31672;47.638;19.026;2023-12-04T21:52:23;100496.81;;;-3.05;100.00
42761;BME280;31672;47.638;19.026;2023-12-04T21:57:27;100490.59;;;-3.03;100.00
42761;BME280;31672;47.638;19.026;2023-12-04T22:02:31;100474.16;;;-3.03;100.00
42761;BME280;31672;47.638;19.026;2023-12-04T22:07:35;100480.06;;;-3.00;100.00
42761;BME280;31672;47.638;19.026;2023-12-04T22:12:38;100462.19;;;-3.06;100.00
42761;BME280;31672;47.638;19.026;2023-12-04T22:17:42;100457.88;;;-3.07;100.00
42761;BME280;31672;47.638;19.026;2023-12-04T22:22:45;100427.75;;;-3.11;100.00
42761;BME280;31672;47.638;19.026;2023-12-04T22:27:49;100440.28;;;-3.02;100.00
42761;BME280;31672;47.638;19.026;2023-12-04T22:32:53;100439.38;;;-3.01;100.00
42761;BME280;31672;47.638;19.026;2023-12-04T22:37:57;100429.13;;;-3.04;100.00
42761;BME280;31672;47.638;19.026;2023-12-04T22:43:03;100431.56;;;-3.01;100.00
42761;BME280;31672;47.638;19.026;2023-12-04T22:48:07;100419.41;;;-3.00;100.00
42761;BME280;31672;47.638;19.026;2023-12-04T22:53:10;100431.72;;;-3.04;100.00
42761;BME280;31672;47.638;19.026;2023-12-04T22:58:14;100413.63;;;-3.05;100.00
42761;BME280;31672;47.638;19.026;2023-12-04T23:03:18;100418.56;;;-3.01;100.00
42761;BME280;31672;47.638;19.026;2023-12-04T23:08:22;100412.78;;;-3.06;100.00
42761;BME280;31672;47.638;19.026;2023-12-04T23:13:25;100419.66;;;-3.05;100.00
42761;BME280;31672;47.638;19.026;2023-12-04T23:18:29;100400.63;;;-3.05;100.00
42761;BME280;31672;47.638;19.026;2023-12-04T23:23:34;100420.28;;;-3.00;100.00
42761;BME280;31672;47.638;19.026;2023-12-04T23:28:38;100415.81;;;-2.98;100.00
42761;BME280;31672;47.638;19.026;2023-12-04T23:33:42;100403.88;;;-3.02;100.00
42761;BME280;31672;47.638;19.026;2023-12-04T23:38:46;100398.56;;;-2.99;100.00
42761;BME280;31672;47.638;19.026;2023-12-04T23:43:49;100376.97;;;-3.01;100.00
42761;BME280;31672;47.638;19.026;2023-12-04T23:48:53;100373.53;;;-3.01;100.00
42761;BME280;31672;47.638;19.026;2023-12-04T23:53:57;100351.13;;;-3.04;100.00
42761;BME280;31672;47.638;19.026;2023-12-04T23:59:01;100350.38;;;-3.06;100.00
